sensor_id;sensor_type;location;lat;lon;timestamp;P1;durP1;ratioP1;P2;durP2;ratioP2
8642;SDS011;4359;49.358;11.256;2023-08-20T00:01:28;16.58;;;7.53;;
8642;SDS011;4359;49.358;11.256;2023-08-20T00:03:54;15.63;;;7.45;;
8642;SDS011;4359;49.358;11.256;2023-08-20T00:06:21;12.90;;;8.15;;
8642;SDS011;4359;49.358;11.256;2023-08-20T00:08:47;14.18;;;7.70;;
8642;SDS011;4359;49.358;11.256;2023-08-20T00:11:13;11.25;;;6.97;;
8642;SDS011;4359;49.358;11.256;2023-08-20T00:13:40;11.02;;;7.68;;
8642;SDS011;4359;49.358;11.256;2023-08-20T00:16:06;14.30;;;8.35;;
8642;SDS011;4359;49.358;11.256;2023-08-20T00:18:32;11.52;;;7.70;;
8642;SDS011;4359;49.358;11.256;2023-08-20T00:20:58;12.57;;;8.18;;
8642;SDS011;4359;49.358;11.256;2023-08-20T00:23:25;11.13;;;7.50;;
8642;SDS011;4359;49.358;11.256;2023-08-20T00:25:51;9.55;;;7.95;;
8642;SDS011;4359;49.358;11.256;2023-08-20T00:28:17;14.63;;;8.70;;
8642;SDS011;4359;49.358;11.256;2023-08-20T00:30:44;16.35;;;8.15;;
8642;SDS011;4359;49.358;11.256;2023-08-20T00:33:10;12.52;;;6.82;;
8642;SDS011;4359;49.358;11.256;2023-08-20T00:35:35;12.07;;;7.45;;
8642;SDS011;4359;49.358;11.256;2023-08-20T00:38:01;12.40;;;8.25;;
8642;SDS011;4359;49.358;11.256;2023-08-20T00:40:27;11.30;;;7.90;;
8642;SDS011;4359;49.358;11.256;2023-08-20T00:42:53;12.43;;;8.02;;
8642;SDS011;4359;49.358;11.256;2023-08-20T00:45:18;15.50;;;8.18;;
8642;SDS011;4359;49.358;11.256;2023-08-20T00:47:44;12.60;;;8.18;;
8642;SDS011;4359;49.358;11.256;2023-08-20T00:50:10;14.95;;;7.63;;
8642;SDS011;4359;49.358;11.256;2023-08-20T00:52:37;16.80;;;7.38;;
8642;SDS011;4359;49.358;11.256;2023-08-20T00:55:10;11.73;;;7.65;;
8642;SDS011;4359;49.358;11.256;2023-08-20T00:57:38;13.82;;;7.45;;
8642;SDS011;4359;49.358;11.256;2023-08-20T01:00:04;17.00;;;7.57;;
8642;SDS011;4359;49.358;11.256;2023-08-20T01:02:33;12.23;;;7.05;;
8642;SDS011;4359;49.358;11.256;2023-08-20T01:04:59;11.60;;;7.57;;
8642;SDS011;4359;49.358;11.256;2023-08-20T01:07:37;11.98;;;8.00;;
8642;SDS011;4359;49.358;11.256;2023-08-20T01:13:00;12.63;;;7.30;;
8642;SDS011;4359;49.358;11.256;2023-08-20T01:15:26;17.63;;;7.72;;
8642;SDS011;4359;49.358;11.256;2023-08-20T01:17:52;9.75;;;7.38;;
8642;SDS011;4359;49.358;11.256;2023-08-20T01:20:18;12.25;;;7.70;;
8642;SDS011;4359;49.358;11.256;2023-08-20T01:30:53;10.50;;;7.00;;
8642;SDS011;4359;49.358;11.256;2023-08-20T01:33:21;12.27;;;7.45;;
8642;SDS011;4359;49.358;11.256;2023-08-20T01:35:47;13.25;;;6.90;;
8642;SDS011;4359;49.358;11.256;2023-08-20T01:38:13;11.40;;;7.40;;
8642;SDS011;4359;49.358;11.256;2023-08-20T01:40:39;14.82;;;7.72;;
8642;SDS011;4359;49.358;11.256;2023-08-20T01:43:04;19.38;;;7.45;;
8642;SDS011;4359;49.358;11.256;2023-08-20T01:45:30;13.77;;;7.47;;
8642;SDS011;4359;49.358;11.256;2023-08-20T01:47:56;15.57;;;7.53;;
8642;SDS011;4359;49.358;11.256;2023-08-20T01:50:21;15.90;;;7.88;;
8642;SDS011;4359;49.358;11.256;2023-08-20T01:52:47;11.93;;;7.38;;
8642;SDS011;4359;49.358;11.256;2023-08-20T01:55:12;12.65;;;7.13;;
8642;SDS011;4359;49.358;11.256;2023-08-20T01:57:39;15.48;;;7.80;;
8642;SDS011;4359;49.358;11.256;2023-08-20T02:00:04;11.77;;;7.22;;
8642;SDS011;4359;49.358;11.256;2023-08-20T02:02:31;10.07;;;7.10;;
8642;SDS011;4359;49.358;11.256;2023-08-20T02:04:57;10.63;;;6.78;;
8642;SDS011;4359;49.358;11.256;2023-08-20T02:07:23;14.55;;;7.60;;
8642;SDS011;4359;49.358;11.256;2023-08-20T02:09:49;13.38;;;7.75;;
8642;SDS011;4359;49.358;11.256;2023-08-20T02:12:14;11.32;;;7.63;;
8642;SDS011;4359;49.358;11.256;2023-08-20T02:14:40;10.57;;;7.00;;
8642;SDS011;4359;49.358;11.256;2023-08-20T02:17:06;12.93;;;7.45;;
8642;SDS011;4359;49.358;11.256;2023-08-20T02:19:33;16.30;;;7.68;;
8642;SDS011;4359;49.358;11.256;2023-08-20T02:21:58;12.05;;;7.20;;
8642;SDS011;4359;49.358;11.256;2023-08-20T02:24:24;9.18;;;7.10;;
8642;SDS011;4359;49.358;11.256;2023-08-20T02:26:51;13.70;;;7.78;;
8642;SDS011;4359;49.358;11.256;2023-08-20T02:29:16;12.55;;;7.10;;
8642;SDS011;4359;49.358;11.256;2023-08-20T02:31:42;11.70;;;7.50;;
8642;SDS011;4359;49.358;11.256;2023-08-20T02:34:08;12.60;;;7.78;;
8642;SDS011;4359;49.358;11.256;2023-08-20T02:36:34;13.25;;;7.75;;
8642;SDS011;4359;49.358;11.256;2023-08-20T02:38:59;10.23;;;7.45;;
8642;SDS011;4359;49.358;11.256;2023-08-20T02:41:25;14.85;;;7.50;;
8642;SDS011;4359;49.358;11.256;2023-08-20T02:43:51;14.98;;;7.53;;
8642;SDS011;4359;49.358;11.256;2023-08-20T02:46:17;13.55;;;7.82;;
8642;SDS011;4359;49.358;11.256;2023-08-20T02:48:42;13.07;;;7.45;;
8642;SDS011;4359;49.358;11.256;2023-08-20T02:51:08;11.55;;;6.90;;
8642;SDS011;4359;49.358;11.256;2023-08-20T02:53:34;13.27;;;7.90;;
8642;SDS011;4359;49.358;11.256;2023-08-20T02:55:59;13.43;;;7.78;;
8642;SDS011;4359;49.358;11.256;2023-08-20T02:58:25;13.27;;;7.88;;
8642;SDS011;4359;49.358;11.256;2023-08-20T03:00:51;11.95;;;7.40;;
8642;SDS011;4359;49.358;11.256;2023-08-20T03:03:18;13.15;;;7.70;;
8642;SDS011;4359;49.358;11.256;2023-08-20T03:05:43;15.30;;;7.63;;
8642;SDS011;4359;49.358;11.256;2023-08-20T03:08:09;9.80;;;7.28;;
8642;SDS011;4359;49.358;11.256;2023-08-20T03:10:35;12.05;;;7.82;;
8642;SDS011;4359;49.358;11.256;2023-08-20T03:13:01;11.45;;;7.85;;
8642;SDS011;4359;49.358;11.256;2023-08-20T03:15:27;9.60;;;7.78;;
8642;SDS011;4359;49.358;11.256;2023-08-20T03:17:54;13.35;;;8.10;;
8642;SDS011;4359;49.358;11.256;2023-08-20T03:20:19;11.82;;;8.10;;
8642;SDS011;4359;49.358;11.256;2023-08-20T03:22:45;14.82;;;8.00;;
8642;SDS011;4359;49.358;11.256;2023-08-20T03:25:11;11.60;;;7.57;;
8642;SDS011;4359;49.358;11.256;2023-08-20T03:27:40;10.50;;;8.02;;
8642;SDS011;4359;49.358;11.256;2023-08-20T03:30:06;12.25;;;7.45;;
8642;SDS011;4359;49.358;11.256;2023-08-20T03:32:32;10.57;;;7.93;;
8642;SDS011;4359;49.358;11.256;2023-08-20T03:34:58;13.48;;;7.50;;
8642;SDS011;4359;49.358;11.256;2023-08-20T03:37:24;9.48;;;8.10;;
8642;SDS011;4359;49.358;11.256;2023-08-20T03:39:51;11.32;;;7.88;;
8642;SDS011;4359;49.358;11.256;2023-08-20T03:42:17;15.60;;;8.18;;
8642;SDS011;4359;49.358;11.256;2023-08-20T03:44:43;14.20;;;8.02;;
8642;SDS011;4359;49.358;11.256;2023-08-20T03:47:09;10.10;;;7.55;;
8642;SDS011;4359;49.358;11.256;2023-08-20T03:49:34;16.67;;;8.93;;
8642;SDS011;4359;49.358;11.256;2023-08-20T03:52:00;16.45;;;8.02;;
8642;SDS011;4359;49.358;11.256;2023-08-20T03:54:27;10.20;;;7.85;;
8642;SDS011;4359;49.358;11.256;2023-08-20T03:56:56;10.45;;;8.07;;
8642;SDS011;4359;49.358;11.256;2023-08-20T03:59:22;12.25;;;8.13;;
8642;SDS011;4359;49.358;11.256;2023-08-20T04:01:48;13.50;;;8.27;;
8642;SDS011;4359;49.358;11.256;2023-08-20T04:04:14;11.93;;;8.27;;
8642;SDS011;4359;49.358;11.256;2023-08-20T04:06:39;9.85;;;8.10;;
8642;SDS011;4359;49.358;11.256;2023-08-20T04:09:05;12.25;;;7.80;;
8642;SDS011;4359;49.358;11.256;2023-08-20T04:11:32;10.93;;;7.78;;
8642;SDS011;4359;49.358;11.256;2023-08-20T04:13:57;9.75;;;7.85;;
8642;SDS011;4359;49.358;11.256;2023-08-20T04:16:23;12.30;;;7.90;;
8642;SDS011;4359;49.358;11.256;2023-08-20T04:18:49;12.05;;;7.95;;
8642;SDS011;4359;49.358;11.256;2023-08-20T04:21:15;16.15;;;8.77;;
8642;SDS011;4359;49.358;11.256;2023-08-20T04:23:40;10.00;;;8.13;;
8642;SDS011;4359;49.358;11.256;2023-08-20T04:26:07;12.45;;;8.60;;
8642;SDS011;4359;49.358;11.256;2023-08-20T04:28:33;10.05;;;8.52;;
8642;SDS011;4359;49.358;11.256;2023-08-20T04:30:58;10.45;;;8.77;;
8642;SDS011;4359;49.358;11.256;2023-08-20T04:33:25;15.18;;;9.35;;
8642;SDS011;4359;49.358;11.256;2023-08-20T04:35:51;12.43;;;9.07;;
8642;SDS011;4359;49.358;11.256;2023-08-20T04:38:17;11.90;;;8.80;;
8642;SDS011;4359;49.358;11.256;2023-08-20T04:40:47;13.55;;;9.35;;
8642;SDS011;4359;49.358;11.256;2023-08-20T04:43:13;16.67;;;9.40;;
8642;SDS011;4359;49.358;11.256;2023-08-20T04:45:40;13.32;;;9.82;;
8642;SDS011;4359;49.358;11.256;2023-08-20T04:48:06;12.10;;;8.80;;
8642;SDS011;4359;49.358;11.256;2023-08-20T04:50:32;13.05;;;9.45;;
8642;SDS011;4359;49.358;11.256;2023-08-20T04:52:57;17.60;;;10.20;;
8642;SDS011;4359;49.358;11.256;2023-08-20T04:55:24;15.02;;;10.32;;
8642;SDS011;4359;49.358;11.256;2023-08-20T04:57:50;15.27;;;9.88;;
8642;SDS011;4359;49.358;11.256;2023-08-20T05:00:16;19.20;;;9.43;;
8642;SDS011;4359;49.358;11.256;2023-08-20T05:02:42;13.70;;;8.90;;
8642;SDS011;4359;49.358;11.256;2023-08-20T05:05:08;12.07;;;8.77;;
8642;SDS011;4359;49.358;11.256;2023-08-20T05:07:34;10.55;;;8.30;;
8642;SDS011;4359;49.358;11.256;2023-08-20T05:10:00;11.20;;;8.05;;
8642;SDS011;4359;49.358;11.256;2023-08-20T05:12:25;18.50;;;9.05;;
8642;SDS011;4359;49.358;11.256;2023-08-20T05:14:51;11.15;;;8.23;;
8642;SDS011;4359;49.358;11.256;2023-08-20T05:17:17;15.70;;;8.60;;
8642;SDS011;4359;49.358;11.256;2023-08-20T05:19:42;12.88;;;8.57;;
8642;SDS011;4359;49.358;11.256;2023-08-20T05:22:08;12.85;;;8.23;;
8642;SDS011;4359;49.358;11.256;2023-08-20T05:24:35;14.63;;;8.40;;
8642;SDS011;4359;49.358;11.256;2023-08-20T05:27:07;12.73;;;8.55;;
8642;SDS011;4359;49.358;11.256;2023-08-20T05:29:34;16.23;;;8.68;;
8642;SDS011;4359;49.358;11.256;2023-08-20T05:32:01;12.57;;;8.20;;
8642;SDS011;4359;49.358;11.256;2023-08-20T05:34:27;11.35;;;7.70;;
8642;SDS011;4359;49.358;11.256;2023-08-20T05:36:52;9.90;;;7.55;;
8642;SDS011;4359;49.358;11.256;2023-08-20T05:39:18;16.13;;;8.05;;
8642;SDS011;4359;49.358;11.256;2023-08-20T05:41:43;13.10;;;7.50;;
8642;SDS011;4359;49.358;11.256;2023-08-20T05:44:09;10.18;;;6.93;;
8642;SDS011;4359;49.358;11.256;2023-08-20T05:46:35;12.00;;;7.05;;
8642;SDS011;4359;49.358;11.256;2023-08-20T05:49:01;10.77;;;6.53;;
8642;SDS011;4359;49.358;11.256;2023-08-20T05:51:27;13.10;;;7.43;;
8642;SDS011;4359;49.358;11.256;2023-08-20T05:53:52;9.02;;;6.70;;
8642;SDS011;4359;49.358;11.256;2023-08-20T05:56:18;12.82;;;7.22;;
8642;SDS011;4359;49.358;11.256;2023-08-20T05:58:44;12.98;;;7.15;;
8642;SDS011;4359;49.358;11.256;2023-08-20T06:01:09;11.95;;;7.30;;
8642;SDS011;4359;49.358;11.256;2023-08-20T06:03:36;11.45;;;8.02;;
8642;SDS011;4359;49.358;11.256;2023-08-20T06:06:02;10.88;;;7.00;;
8642;SDS011;4359;49.358;11.256;2023-08-20T06:08:27;11.80;;;7.68;;
8642;SDS011;4359;49.358;11.256;2023-08-20T06:10:53;11.35;;;7.03;;
8642;SDS011;4359;49.358;11.256;2023-08-20T06:13:19;13.65;;;7.57;;
8642;SDS011;4359;49.358;11.256;2023-08-20T06:15:44;11.18;;;6.88;;
8642;SDS011;4359;49.358;11.256;2023-08-20T06:18:10;13.43;;;6.72;;
8642;SDS011;4359;49.358;11.256;2023-08-20T06:20:36;16.90;;;7.78;;
8642;SDS011;4359;49.358;11.256;2023-08-20T06:23:01;9.65;;;6.32;;
8642;SDS011;4359;49.358;11.256;2023-08-20T06:25:27;12.45;;;7.28;;
8642;SDS011;4359;49.358;11.256;2023-08-20T06:27:53;11.13;;;6.90;;
8642;SDS011;4359;49.358;11.256;2023-08-20T06:30:18;9.20;;;6.60;;
8642;SDS011;4359;49.358;11.256;2023-08-20T06:32:44;15.18;;;7.35;;
8642;SDS011;4359;49.358;11.256;2023-08-20T06:35:10;13.18;;;6.55;;
8642;SDS011;4359;49.358;11.256;2023-08-20T06:40:04;9.65;;;6.60;;
8642;SDS011;4359;49.358;11.256;2023-08-20T06:42:30;9.30;;;5.95;;
8642;SDS011;4359;49.358;11.256;2023-08-20T06:44:56;11.27;;;6.45;;
8642;SDS011;4359;49.358;11.256;2023-08-20T06:47:22;14.55;;;6.95;;
8642;SDS011;4359;49.358;11.256;2023-08-20T06:49:47;14.35;;;6.50;;
8642;SDS011;4359;49.358;11.256;2023-08-20T06:52:14;9.68;;;6.97;;
8642;SDS011;4359;49.358;11.256;2023-08-20T06:54:40;10.73;;;6.28;;
8642;SDS011;4359;49.358;11.256;2023-08-20T06:57:05;8.82;;;6.13;;
8642;SDS011;4359;49.358;11.256;2023-08-20T06:59:31;9.93;;;6.20;;
8642;SDS011;4359;49.358;11.256;2023-08-20T07:01:57;10.13;;;5.82;;
8642;SDS011;4359;49.358;11.256;2023-08-20T07:04:22;8.63;;;6.10;;
8642;SDS011;4359;49.358;11.256;2023-08-20T07:06:48;8.70;;;5.70;;
8642;SDS011;4359;49.358;11.256;2023-08-20T07:09:15;8.43;;;5.25;;
8642;SDS011;4359;49.358;11.256;2023-08-20T07:11:41;8.98;;;6.03;;
8642;SDS011;4359;49.358;11.256;2023-08-20T07:14:06;8.02;;;5.07;;
8642;SDS011;4359;49.358;11.256;2023-08-20T07:16:32;11.10;;;5.50;;
8642;SDS011;4359;49.358;11.256;2023-08-20T07:18:58;8.18;;;5.57;;
8642;SDS011;4359;49.358;11.256;2023-08-20T07:21:23;10.32;;;5.43;;
8642;SDS011;4359;49.358;11.256;2023-08-20T07:23:49;7.07;;;5.07;;
8642;SDS011;4359;49.358;11.256;2023-08-20T07:26:15;8.68;;;5.47;;
8642;SDS011;4359;49.358;11.256;2023-08-20T07:28:41;7.18;;;5.03;;
8642;SDS011;4359;49.358;11.256;2023-08-20T07:31:22;7.35;;;5.53;;
8642;SDS011;4359;49.358;11.256;2023-08-20T07:33:49;8.57;;;5.63;;
8642;SDS011;4359;49.358;11.256;2023-08-20T07:36:15;8.73;;;6.05;;
8642;SDS011;4359;49.358;11.256;2023-08-20T07:38:42;7.80;;;5.63;;
8642;SDS011;4359;49.358;11.256;2023-08-20T07:41:11;9.07;;;6.07;;
8642;SDS011;4359;49.358;11.256;2023-08-20T07:43:37;11.90;;;6.22;;
8642;SDS011;4359;49.358;11.256;2023-08-20T07:46:04;10.00;;;6.20;;
8642;SDS011;4359;49.358;11.256;2023-08-20T07:48:30;9.68;;;5.53;;
8642;SDS011;4359;49.358;11.256;2023-08-20T07:50:59;11.35;;;5.82;;
8642;SDS011;4359;49.358;11.256;2023-08-20T07:53:25;9.50;;;6.05;;
8642;SDS011;4359;49.358;11.256;2023-08-20T07:55:51;8.40;;;5.40;;
8642;SDS011;4359;49.358;11.256;2023-08-20T07:58:17;11.77;;;5.95;;
8642;SDS011;4359;49.358;11.256;2023-08-20T08:00:43;8.32;;;5.63;;
8642;SDS011;4359;49.358;11.256;2023-08-20T08:03:08;10.63;;;5.70;;
8642;SDS011;4359;49.358;11.256;2023-08-20T08:05:35;8.45;;;5.10;;
8642;SDS011;4359;49.358;11.256;2023-08-20T08:08:01;12.52;;;5.63;;
8642;SDS011;4359;49.358;11.256;2023-08-20T08:10:27;7.32;;;4.75;;
8642;SDS011;4359;49.358;11.256;2023-08-20T08:12:53;8.98;;;4.47;;
8642;SDS011;4359;49.358;11.256;2023-08-20T08:15:19;7.45;;;4.80;;
8642;SDS011;4359;49.358;11.256;2023-08-20T08:17:44;8.45;;;4.28;;
8642;SDS011;4359;49.358;11.256;2023-08-20T08:20:10;6.65;;;4.20;;
8642;SDS011;4359;49.358;11.256;2023-08-20T08:22:36;6.07;;;4.13;;
8642;SDS011;4359;49.358;11.256;2023-08-20T08:25:01;8.80;;;3.40;;
8642;SDS011;4359;49.358;11.256;2023-08-20T08:27:27;9.15;;;4.10;;
8642;SDS011;4359;49.358;11.256;2023-08-20T08:29:53;8.35;;;3.90;;
8642;SDS011;4359;49.358;11.256;2023-08-20T08:32:18;7.07;;;3.13;;
8642;SDS011;4359;49.358;11.256;2023-08-20T08:34:44;5.03;;;3.03;;
8642;SDS011;4359;49.358;11.256;2023-08-20T08:37:10;8.43;;;3.92;;
8642;SDS011;4359;49.358;11.256;2023-08-20T08:39:36;4.72;;;2.88;;
8642;SDS011;4359;49.358;11.256;2023-08-20T08:42:02;10.68;;;3.17;;
8642;SDS011;4359;49.358;11.256;2023-08-20T08:44:31;6.47;;;3.00;;
8642;SDS011;4359;49.358;11.256;2023-08-20T08:46:57;9.68;;;3.33;;
8642;SDS011;4359;49.358;11.256;2023-08-20T08:49:23;5.20;;;2.88;;
8642;SDS011;4359;49.358;11.256;2023-08-20T08:51:50;9.68;;;3.20;;
8642;SDS011;4359;49.358;11.256;2023-08-20T08:54:18;10.73;;;3.92;;
8642;SDS011;4359;49.358;11.256;2023-08-20T08:56:45;8.77;;;3.20;;
8642;SDS011;4359;49.358;11.256;2023-08-20T08:59:11;6.35;;;3.10;;
8642;SDS011;4359;49.358;11.256;2023-08-20T09:01:40;12.15;;;3.08;;
8642;SDS011;4359;49.358;11.256;2023-08-20T09:04:06;6.47;;;3.38;;
8642;SDS011;4359;49.358;11.256;2023-08-20T09:09:18;9.90;;;3.35;;
8642;SDS011;4359;49.358;11.256;2023-08-20T09:11:45;7.18;;;3.00;;
8642;SDS011;4359;49.358;11.256;2023-08-20T09:14:21;7.32;;;3.38;;
8642;SDS011;4359;49.358;11.256;2023-08-20T09:16:53;6.25;;;3.00;;
8642;SDS011;4359;49.358;11.256;2023-08-20T09:19:21;5.90;;;2.92;;
8642;SDS011;4359;49.358;11.256;2023-08-20T09:21:46;5.30;;;2.80;;
8642;SDS011;4359;49.358;11.256;2023-08-20T09:24:13;6.82;;;3.20;;
8642;SDS011;4359;49.358;11.256;2023-08-20T09:26:39;6.93;;;2.85;;
8642;SDS011;4359;49.358;11.256;2023-08-20T09:29:04;8.75;;;2.83;;
8642;SDS011;4359;49.358;11.256;2023-08-20T09:31:37;6.15;;;2.78;;
8642;SDS011;4359;49.358;11.256;2023-08-20T09:34:04;3.85;;;2.60;;
8642;SDS011;4359;49.358;11.256;2023-08-20T09:36:31;5.93;;;2.65;;
8642;SDS011;4359;49.358;11.256;2023-08-20T09:38:58;7.07;;;2.90;;
8642;SDS011;4359;49.358;11.256;2023-08-20T09:41:24;6.20;;;2.90;;
8642;SDS011;4359;49.358;11.256;2023-08-20T09:43:55;6.80;;;2.85;;
8642;SDS011;4359;49.358;11.256;2023-08-20T09:46:26;7.20;;;2.80;;
8642;SDS011;4359;49.358;11.256;2023-08-20T09:48:56;6.90;;;2.45;;
8642;SDS011;4359;49.358;11.256;2023-08-20T09:51:25;10.95;;;3.13;;
8642;SDS011;4359;49.358;11.256;2023-08-20T09:54:08;6.80;;;2.60;;
8642;SDS011;4359;49.358;11.256;2023-08-20T09:56:57;5.50;;;2.30;;
8642;SDS011;4359;49.358;11.256;2023-08-20T09:59:26;8.30;;;2.80;;
8642;SDS011;4359;49.358;11.256;2023-08-20T10:01:52;10.52;;;3.65;;
8642;SDS011;4359;49.358;11.256;2023-08-20T10:04:18;7.85;;;2.42;;
8642;SDS011;4359;49.358;11.256;2023-08-20T10:06:46;5.32;;;2.85;;
8642;SDS011;4359;49.358;11.256;2023-08-20T10:09:12;8.50;;;3.08;;
8642;SDS011;4359;49.358;11.256;2023-08-20T10:11:39;7.60;;;2.70;;
8642;SDS011;4359;49.358;11.256;2023-08-20T10:14:05;8.00;;;2.70;;
8642;SDS011;4359;49.358;11.256;2023-08-20T10:16:32;7.72;;;3.00;;
8642;SDS011;4359;49.358;11.256;2023-08-20T10:19:01;10.00;;;2.80;;
8642;SDS011;4359;49.358;11.256;2023-08-20T10:21:36;8.95;;;2.97;;
8642;SDS011;4359;49.358;11.256;2023-08-20T10:24:10;9.95;;;2.72;;
8642;SDS011;4359;49.358;11.256;2023-08-20T10:26:44;6.07;;;2.90;;
8642;SDS011;4359;49.358;11.256;2023-08-20T10:34:37;4.95;;;2.88;;
8642;SDS011;4359;49.358;11.256;2023-08-20T10:37:10;8.18;;;3.47;;
8642;SDS011;4359;49.358;11.256;2023-08-20T10:39:38;7.25;;;2.85;;
8642;SDS011;4359;49.358;11.256;2023-08-20T10:47:23;6.97;;;3.35;;
8642;SDS011;4359;49.358;11.256;2023-08-20T10:49:52;8.10;;;3.08;;
8642;SDS011;4359;49.358;11.256;2023-08-20T10:52:24;6.13;;;2.70;;
8642;SDS011;4359;49.358;11.256;2023-08-20T10:54:50;8.30;;;3.30;;
8642;SDS011;4359;49.358;11.256;2023-08-20T10:57:17;7.22;;;3.30;;
8642;SDS011;4359;49.358;11.256;2023-08-20T10:59:50;9.07;;;3.50;;
8642;SDS011;4359;49.358;11.256;2023-08-20T11:02:23;8.80;;;3.22;;
8642;SDS011;4359;49.358;11.256;2023-08-20T11:04:50;8.30;;;3.10;;
8642;SDS011;4359;49.358;11.256;2023-08-20T11:07:17;11.07;;;3.17;;
8642;SDS011;4359;49.358;11.256;2023-08-20T11:09:44;6.10;;;3.03;;
8642;SDS011;4359;49.358;11.256;2023-08-20T11:12:14;6.93;;;2.97;;
8642;SDS011;4359;49.358;11.256;2023-08-20T11:14:40;8.00;;;3.35;;
8642;SDS011;4359;49.358;11.256;2023-08-20T11:17:06;5.70;;;3.53;;
8642;SDS011;4359;49.358;11.256;2023-08-20T11:19:33;6.97;;;4.13;;
8642;SDS011;4359;49.358;11.256;2023-08-20T11:21:58;6.18;;;2.90;;
8642;SDS011;4359;49.358;11.256;2023-08-20T11:24:28;5.57;;;3.20;;
8642;SDS011;4359;49.358;11.256;2023-08-20T11:26:54;5.38;;;3.05;;
8642;SDS011;4359;49.358;11.256;2023-08-20T11:29:20;4.90;;;2.97;;
8642;SDS011;4359;49.358;11.256;2023-08-20T11:31:47;5.53;;;2.72;;
8642;SDS011;4359;49.358;11.256;2023-08-20T11:34:13;5.38;;;3.03;;
8642;SDS011;4359;49.358;11.256;2023-08-20T11:36:39;10.73;;;3.28;;
8642;SDS011;4359;49.358;11.256;2023-08-20T11:39:08;6.75;;;3.47;;
8642;SDS011;4359;49.358;11.256;2023-08-20T11:41:37;8.15;;;3.55;;
8642;SDS011;4359;49.358;11.256;2023-08-20T11:44:03;8.38;;;3.05;;
8642;SDS011;4359;49.358;11.256;2023-08-20T11:46:29;10.40;;;3.40;;
8642;SDS011;4359;49.358;11.256;2023-08-20T11:48:59;8.10;;;3.17;;
8642;SDS011;4359;49.358;11.256;2023-08-20T11:51:25;10.30;;;2.85;;
8642;SDS011;4359;49.358;11.256;2023-08-20T11:53:51;7.88;;;3.03;;
8642;SDS011;4359;49.358;11.256;2023-08-20T11:56:17;6.57;;;3.00;;
8642;SDS011;4359;49.358;11.256;2023-08-20T11:58:43;6.93;;;2.85;;
8642;SDS011;4359;49.358;11.256;2023-08-20T12:01:14;8.38;;;2.40;;
8642;SDS011;4359;49.358;11.256;2023-08-20T12:03:40;4.57;;;2.80;;
8642;SDS011;4359;49.358;11.256;2023-08-20T12:06:18;5.90;;;2.70;;
8642;SDS011;4359;49.358;11.256;2023-08-20T12:08:45;11.30;;;3.17;;
8642;SDS011;4359;49.358;11.256;2023-08-20T12:11:12;5.68;;;2.67;;
8642;SDS011;4359;49.358;11.256;2023-08-20T12:13:37;7.45;;;3.28;;
8642;SDS011;4359;49.358;11.256;2023-08-20T12:16:03;10.35;;;3.05;;
8642;SDS011;4359;49.358;11.256;2023-08-20T12:18:29;5.72;;;2.85;;
8642;SDS011;4359;49.358;11.256;2023-08-20T12:20:55;7.88;;;3.10;;
8642;SDS011;4359;49.358;11.256;2023-08-20T12:23:21;7.28;;;3.08;;
8642;SDS011;4359;49.358;11.256;2023-08-20T12:25:49;5.13;;;3.15;;
8642;SDS011;4359;49.358;11.256;2023-08-20T12:28:16;5.55;;;3.00;;
8642;SDS011;4359;49.358;11.256;2023-08-20T12:30:42;8.05;;;2.80;;
8642;SDS011;4359;49.358;11.256;2023-08-20T12:33:09;5.43;;;2.70;;
8642;SDS011;4359;49.358;11.256;2023-08-20T12:35:36;5.70;;;3.15;;
8642;SDS011;4359;49.358;11.256;2023-08-20T12:38:01;7.80;;;2.88;;
8642;SDS011;4359;49.358;11.256;2023-08-20T12:40:28;7.47;;;3.40;;
8642;SDS011;4359;49.358;11.256;2023-08-20T12:42:54;6.57;;;3.15;;
8642;SDS011;4359;49.358;11.256;2023-08-20T12:45:19;4.53;;;2.60;;
8642;SDS011;4359;49.358;11.256;2023-08-20T12:47:45;5.47;;;2.58;;
8642;SDS011;4359;49.358;11.256;2023-08-20T12:50:11;4.72;;;2.90;;
8642;SDS011;4359;49.358;11.256;2023-08-20T12:52:38;6.45;;;2.95;;
8642;SDS011;4359;49.358;11.256;2023-08-20T12:55:04;5.93;;;3.13;;
8642;SDS011;4359;49.358;11.256;2023-08-20T12:57:30;6.28;;;2.70;;
8642;SDS011;4359;49.358;11.256;2023-08-20T12:59:59;8.00;;;3.00;;
8642;SDS011;4359;49.358;11.256;2023-08-20T13:02:24;8.32;;;2.88;;
8642;SDS011;4359;49.358;11.256;2023-08-20T13:04:50;6.15;;;2.70;;
8642;SDS011;4359;49.358;11.256;2023-08-20T13:07:16;7.85;;;3.00;;
8642;SDS011;4359;49.358;11.256;2023-08-20T13:09:42;5.03;;;2.90;;
8642;SDS011;4359;49.358;11.256;2023-08-20T13:12:09;5.32;;;2.80;;
8642;SDS011;4359;49.358;11.256;2023-08-20T13:14:37;4.55;;;2.70;;
8642;SDS011;4359;49.358;11.256;2023-08-20T13:17:06;9.13;;;2.90;;
8642;SDS011;4359;49.358;11.256;2023-08-20T13:19:33;6.93;;;3.08;;
8642;SDS011;4359;49.358;11.256;2023-08-20T13:21:58;7.00;;;3.05;;
8642;SDS011;4359;49.358;11.256;2023-08-20T13:24:24;5.57;;;2.75;;
8642;SDS011;4359;49.358;11.256;2023-08-20T13:26:50;8.63;;;2.85;;
8642;SDS011;4359;49.358;11.256;2023-08-20T13:29:16;8.38;;;2.53;;
8642;SDS011;4359;49.358;11.256;2023-08-20T13:31:42;8.20;;;2.70;;
8642;SDS011;4359;49.358;11.256;2023-08-20T13:34:08;5.50;;;2.88;;
8642;SDS011;4359;49.358;11.256;2023-08-20T13:36:34;8.38;;;3.20;;
8642;SDS011;4359;49.358;11.256;2023-08-20T13:39:00;9.30;;;2.75;;
8642;SDS011;4359;49.358;11.256;2023-08-20T13:41:27;5.57;;;2.65;;
8642;SDS011;4359;49.358;11.256;2023-08-20T13:43:53;9.48;;;3.45;;
8642;SDS011;4359;49.358;11.256;2023-08-20T13:46:18;7.50;;;2.38;;
8642;SDS011;4359;49.358;11.256;2023-08-20T13:48:44;4.97;;;2.60;;
8642;SDS011;4359;49.358;11.256;2023-08-20T13:51:10;7.00;;;2.70;;
8642;SDS011;4359;49.358;11.256;2023-08-20T13:53:35;7.13;;;2.65;;
8642;SDS011;4359;49.358;11.256;2023-08-20T13:56:01;7.95;;;2.78;;
8642;SDS011;4359;49.358;11.256;2023-08-20T13:58:27;7.72;;;2.92;;
8642;SDS011;4359;49.358;11.256;2023-08-20T14:00:53;5.82;;;2.70;;
8642;SDS011;4359;49.358;11.256;2023-08-20T14:03:18;4.18;;;2.88;;
8642;SDS011;4359;49.358;11.256;2023-08-20T14:05:44;6.68;;;2.75;;
8642;SDS011;4359;49.358;11.256;2023-08-20T14:08:10;6.72;;;2.60;;
8642;SDS011;4359;49.358;11.256;2023-08-20T14:10:36;5.85;;;2.55;;
8642;SDS011;4359;49.358;11.256;2023-08-20T14:13:02;8.88;;;2.45;;
8642;SDS011;4359;49.358;11.256;2023-08-20T14:15:28;7.47;;;2.63;;
8642;SDS011;4359;49.358;11.256;2023-08-20T14:17:54;6.68;;;2.85;;
8642;SDS011;4359;49.358;11.256;2023-08-20T14:20:19;8.18;;;2.47;;
8642;SDS011;4359;49.358;11.256;2023-08-20T14:22:45;7.18;;;2.15;;
8642;SDS011;4359;49.358;11.256;2023-08-20T14:25:11;7.22;;;2.83;;
8642;SDS011;4359;49.358;11.256;2023-08-20T14:27:37;7.28;;;2.53;;
8642;SDS011;4359;49.358;11.256;2023-08-20T14:30:02;8.13;;;2.60;;
8642;SDS011;4359;49.358;11.256;2023-08-20T14:32:29;6.47;;;2.60;;
8642;SDS011;4359;49.358;11.256;2023-08-20T14:34:55;5.13;;;2.28;;
8642;SDS011;4359;49.358;11.256;2023-08-20T14:37:20;5.57;;;2.63;;
8642;SDS011;4359;49.358;11.256;2023-08-20T14:39:48;10.90;;;2.97;;
8642;SDS011;4359;49.358;11.256;2023-08-20T14:42:14;6.45;;;2.80;;
8642;SDS011;4359;49.358;11.256;2023-08-20T14:44:40;4.65;;;2.47;;
8642;SDS011;4359;49.358;11.256;2023-08-20T14:47:05;4.75;;;2.40;;
8642;SDS011;4359;49.358;11.256;2023-08-20T14:49:31;6.75;;;2.95;;
8642;SDS011;4359;49.358;11.256;2023-08-20T14:51:57;10.35;;;3.45;;
8642;SDS011;4359;49.358;11.256;2023-08-20T14:54:24;5.97;;;2.70;;
8642;SDS011;4359;49.358;11.256;2023-08-20T14:56:50;5.43;;;2.72;;
8642;SDS011;4359;49.358;11.256;2023-08-20T14:59:16;9.02;;;3.28;;
8642;SDS011;4359;49.358;11.256;2023-08-20T15:01:41;5.57;;;2.70;;
8642;SDS011;4359;49.358;11.256;2023-08-20T15:04:07;8.68;;;2.47;;
8642;SDS011;4359;49.358;11.256;2023-08-20T15:06:33;5.93;;;2.53;;
8642;SDS011;4359;49.358;11.256;2023-08-20T15:08:58;5.45;;;2.63;;
8642;SDS011;4359;49.358;11.256;2023-08-20T15:11:24;5.82;;;2.40;;
8642;SDS011;4359;49.358;11.256;2023-08-20T15:13:50;8.98;;;2.92;;
8642;SDS011;4359;49.358;11.256;2023-08-20T15:16:17;7.03;;;2.80;;
8642;SDS011;4359;49.358;11.256;2023-08-20T15:18:42;4.38;;;2.60;;